sensor_id;sensor_type;location;lat;lon;timestamp;pressure;altitude;pressure_sealevel;temperature;humidity
43420;BME280;29017;51.514;-0.178;2023-03-31T00:01:51;99041.53;;;13.67;95.31
43420;BME280;29017;51.514;-0.178;2023-03-31T00:04:18;99032.78;;;13.67;92.36
43420;BME280;29017;51.514;-0.178;2023-03-31T00:06:49;99037.25;;;13.66;93.78
43420;BME280;29017;51.514;-0.178;2023-03-31T00:09:20;99022.66;;;13.64;93.66
43420;BME280;29017;51.514;-0.178;2023-03-31T00:11:48;99008.84;;;13.62;92.30
43420;BME280;29017;51.514;-0.178;2023-03-31T00:14:16;98999.88;;;13.63;92.70
43420;BME280;29017;51.514;-0.178;2023-03-31T00:16:44;98990.94;;;13.64;92.56
43420;BME280;29017;51.514;-0.178;2023-03-31T00:19:11;98981.19;;;13.64;92.39
43420;BME280;29017;51.514;-0.178;2023-03-31T00:21:44;98987.69;;;13.62;92.40
43420;BME280;29017;51.514;-0.178;2023-03-31T00:24:11;98975.28;;;13.62;92.95
43420;BME280;29017;51.514;-0.178;2023-03-31T00:26:38;98960.47;;;13.61;92.57
43420;BME280;29017;51.514;-0.178;2023-03-31T00:29:06;98965.97;;;13.60;92.42
43420;BME280;29017;51.514;-0.178;2023-03-31T00:31:34;98955.16;;;13.61;92.61
43420;BME280;29017;51.514;-0.178;2023-03-31T00:34:01;98944.59;;;13.61;92.35
43420;BME280;29017;51.514;-0.178;2023-03-31T00:36:28;98946.06;;;13.57;91.54
43420;BME280;29017;51.514;-0.178;2023-03-31T00:38:57;98939.16;;;13.56;91.69
43420;BME280;29017;51.514;-0.178;2023-03-31T00:41:25;98931.88;;;13.52;92.01
43420;BME280;29017;51.514;-0.178;2023-03-31T00:46:30;98910.59;;;13.47;93.01
43420;BME280;29017;51.514;-0.178;2023-03-31T00:48:58;98903.34;;;13.42;94.13
43420;BME280;29017;51.514;-0.178;2023-03-31T00:51:26;98881.84;;;13.39;94.26
43420;BME280;29017;51.514;-0.178;2023-03-31T00:53:55;98871.94;;;13.34;94.72
43420;BME280;29017;51.514;-0.178;2023-03-31T00:56:29;98857.91;;;13.34;95.35
43420;BME280;29017;51.514;-0.178;2023-03-31T00:58:59;98853.09;;;13.31;94.45
43420;BME280;29017;51.514;-0.178;2023-03-31T01:01:27;98848.00;;;13.29;94.25
43420;BME280;29017;51.514;-0.178;2023-03-31T01:03:56;98837.88;;;13.26;94.29
43420;BME280;29017;51.514;-0.178;2023-03-31T01:06:24;98831.06;;;13.18;94.42
43420;BME280;29017;51.514;-0.178;2023-03-31T01:08:51;98819.06;;;13.16;94.97
43420;BME280;29017;51.514;-0.178;2023-03-31T01:11:19;98810.13;;;13.17;95.22
43420;BME280;29017;51.514;-0.178;2023-03-31T01:13:46;98803.03;;;13.17;96.22
43420;BME280;29017;51.514;-0.178;2023-03-31T01:16:16;98790.63;;;13.18;96.66
43420;BME280;29017;51.514;-0.178;2023-03-31T01:18:44;98778.69;;;13.15;96.88
43420;BME280;29017;51.514;-0.178;2023-03-31T01:29:13;98742.56;;;13.09;98.21
43420;BME280;29017;51.514;-0.178;2023-03-31T01:37:05;98716.38;;;13.08;98.83
43420;BME280;29017;51.514;-0.178;2023-03-31T01:42:24;98699.91;;;13.12;99.82
43420;BME280;29017;51.514;-0.178;2023-03-31T01:44:59;98685.06;;;13.11;99.85
43420;BME280;29017;51.514;-0.178;2023-03-31T01:47:30;98682.00;;;13.14;100.00
43420;BME280;29017;51.514;-0.178;2023-03-31T01:50:01;98672.00;;;13.16;100.00
43420;BME280;29017;51.514;-0.178;2023-03-31T01:52:35;98667.53;;;13.17;100.00
43420;BME280;29017;51.514;-0.178;2023-03-31T01:55:09;98660.22;;;13.19;100.00
43420;BME280;29017;51.514;-0.178;2023-03-31T01:57:39;98645.38;;;13.18;100.00
43420;BME280;29017;51.514;-0.178;2023-03-31T02:02:41;98630.81;;;13.15;100.00
43420;BME280;29017;51.514;-0.178;2023-03-31T02:05:13;98624.88;;;13.20;99.93
43420;BME280;29017;51.514;-0.178;2023-03-31T02:07:44;98615.66;;;13.22;99.81
43420;BME280;29017;51.514;-0.178;2023-03-31T02:10:13;98607.06;;;13.27;100.00
43420;BME280;29017;51.514;-0.178;2023-03-31T02:12:42;98598.13;;;13.28;100.00
43420;BME280;29017;51.514;-0.178;2023-03-31T02:15:12;98592.16;;;13.33;100.00
43420;BME280;29017;51.514;-0.178;2023-03-31T02:17:40;98589.09;;;13.36;100.00
43420;BME280;29017;51.514;-0.178;2023-03-31T02:20:11;98581.50;;;13.39;100.00
43420;BME280;29017;51.514;-0.178;2023-03-31T02:22:42;98575.63;;;13.37;99.59
43420;BME280;29017;51.514;-0.178;2023-03-31T02:25:10;98569.91;;;13.40;99.82
43420;BME280;29017;51.514;-0.178;2023-03-31T02:27:38;98563.22;;;13.38;99.05
43420;BME280;29017;51.514;-0.178;2023-03-31T02:30:08;98543.81;;;13.32;98.80
43420;BME280;29017;51.514;-0.178;2023-03-31T02:35:03;98539.69;;;13.36;98.87
43420;BME280;29017;51.514;-0.178;2023-03-31T02:37:30;98532.56;;;13.37;98.47
43420;BME280;29017;51.514;-0.178;2023-03-31T02:39:58;98533.38;;;13.37;98.28
43420;BME280;29017;51.514;-0.178;2023-03-31T02:42:26;98525.81;;;13.41;98.86
43420;BME280;29017;51.514;-0.178;2023-03-31T02:44:53;98510.75;;;13.41;98.75
43420;BME280;29017;51.514;-0.178;2023-03-31T02:47:20;98502.16;;;13.46;98.75
43420;BME280;29017;51.514;-0.178;2023-03-31T02:49:48;98484.91;;;13.43;98.33
43420;BME280;29017;51.514;-0.178;2023-03-31T03:02:44;98451.97;;;13.46;98.68
43420;BME280;29017;51.514;-0.178;2023-03-31T03:05:20;98449.31;;;13.46;98.67
43420;BME280;29017;51.514;-0.178;2023-03-31T03:15:31;98420.03;;;13.36;97.96
43420;BME280;29017;51.514;-0.178;2023-03-31T03:18:00;98408.41;;;13.37;97.76
43420;BME280;29017;51.514;-0.178;2023-03-31T03:20:28;98403.81;;;13.32;97.17
43420;BME280;29017;51.514;-0.178;2023-03-31T03:22:54;98390.06;;;13.30;96.41
43420;BME280;29017;51.514;-0.178;2023-03-31T03:25:21;98384.66;;;13.25;96.10
43420;BME280;29017;51.514;-0.178;2023-03-31T03:27:50;98374.91;;;13.25;96.76
43420;BME280;29017;51.514;-0.178;2023-03-31T03:30:18;98371.47;;;13.25;96.94
43420;BME280;29017;51.514;-0.178;2023-03-31T03:32:45;98366.75;;;13.27;97.46
43420;BME280;29017;51.514;-0.178;2023-03-31T03:35:12;98356.06;;;13.34;98.31
43420;BME280;29017;51.514;-0.178;2023-03-31T03:37:39;98353.78;;;13.25;96.74
43420;BME280;29017;51.514;-0.178;2023-03-31T03:40:07;98362.25;;;13.27;96.51
43420;BME280;29017;51.514;-0.178;2023-03-31T03:42:34;98340.09;;;13.28;97.02
43420;BME280;29017;51.514;-0.178;2023-03-31T03:45:01;98338.06;;;13.31;97.15
43420;BME280;29017;51.514;-0.178;2023-03-31T03:47:28;98336.88;;;13.26;96.68
43420;BME280;29017;51.514;-0.178;2023-03-31T03:49:55;98332.41;;;13.27;96.60
43420;BME280;29017;51.514;-0.178;2023-03-31T03:52:22;98325.78;;;13.24;96.33
43420;BME280;29017;51.514;-0.178;2023-03-31T03:54:49;98315.66;;;13.21;96.38
43420;BME280;29017;51.514;-0.178;2023-03-31T03:57:16;98314.84;;;13.21;96.06
43420;BME280;29017;51.514;-0.178;2023-03-31T03:59:43;98302.44;;;13.21;96.06
43420;BME280;29017;51.514;-0.178;2023-03-31T04:02:10;98298.22;;;13.20;96.39
43420;BME280;29017;51.514;-0.178;2023-03-31T04:04:37;98291.34;;;13.19;96.34
43420;BME280;29017;51.514;-0.178;2023-03-31T04:07:04;98286.28;;;13.18;96.45
43420;BME280;29017;51.514;-0.178;2023-03-31T04:09:31;98288.91;;;13.18;96.88
43420;BME280;29017;51.514;-0.178;2023-03-31T04:11:57;98273.06;;;13.18;97.24
43420;BME280;29017;51.514;-0.178;2023-03-31T04:14:24;98277.88;;;13.21;97.59
43420;BME280;29017;51.514;-0.178;2023-03-31T04:16:51;98269.41;;;13.19;97.33
43420;BME280;29017;51.514;-0.178;2023-03-31T04:19:21;98267.78;;;13.18;96.93
43420;BME280;29017;51.514;-0.178;2023-03-31T04:21:51;98259.88;;;13.18;97.06
43420;BME280;29017;51.514;-0.178;2023-03-31T04:24:28;98243.22;;;13.17;97.09
43420;BME280;29017;51.514;-0.178;2023-03-31T04:26:59;98235.78;;;13.14;96.45
43420;BME280;29017;51.514;-0.178;2023-03-31T04:29:26;98219.13;;;13.14;96.85
43420;BME280;29017;51.514;-0.178;2023-03-31T04:31:53;98224.19;;;13.15;97.23
43420;BME280;29017;51.514;-0.178;2023-03-31T04:34:24;98213.84;;;13.14;96.59
43420;BME280;29017;51.514;-0.178;2023-03-31T04:37:01;98219.94;;;13.14;96.29
43420;BME280;29017;51.514;-0.178;2023-03-31T04:39:28;98201.06;;;13.11;96.14
43420;BME280;29017;51.514;-0.178;2023-03-31T04:41:57;98202.94;;;13.10;96.08
43420;BME280;29017;51.514;-0.178;2023-03-31T04:44:24;98203.72;;;13.11;96.11
43420;BME280;29017;51.514;-0.178;2023-03-31T04:46:51;98194.78;;;13.12;96.23
43420;BME280;29017;51.514;-0.178;2023-03-31T04:49:18;98193.16;;;13.11;95.91
43420;BME280;29017;51.514;-0.178;2023-03-31T04:51:45;98192.38;;;13.10;95.57
43420;BME280;29017;51.514;-0.178;2023-03-31T04:54:12;98178.38;;;13.10;95.55
43420;BME280;29017;51.514;-0.178;2023-03-31T04:56:39;98179.63;;;13.07;95.27
43420;BME280;29017;51.514;-0.178;2023-03-31T04:59:06;98176.44;;;13.05;95.65
43420;BME280;29017;51.514;-0.178;2023-03-31T05:01:34;98170.09;;;13.06;96.33
43420;BME280;29017;51.514;-0.178;2023-03-31T05:04:04;98164.28;;;13.04;96.75
43420;BME280;29017;51.514;-0.178;2023-03-31T05:06:31;98159.22;;;13.03;96.51
43420;BME280;29017;51.514;-0.178;2023-03-31T05:08:58;98158.41;;;13.02;96.21
43420;BME280;29017;51.514;-0.178;2023-03-31T05:11:25;98148.34;;;12.99;96.34
43420;BME280;29017;51.514;-0.178;2023-03-31T05:13:53;98144.09;;;12.98;95.76
43420;BME280;29017;51.514;-0.178;2023-03-31T05:16:19;98139.59;;;12.99;96.04
43420;BME280;29017;51.514;-0.178;2023-03-31T05:18:47;98137.41;;;12.96;96.18
43420;BME280;29017;51.514;-0.178;2023-03-31T05:21:14;98140.06;;;12.96;96.18
43420;BME280;29017;51.514;-0.178;2023-03-31T05:23:43;98132.94;;;12.96;96.62
43420;BME280;29017;51.514;-0.178;2023-03-31T05:26:10;98124.22;;;12.96;96.90
43420;BME280;29017;51.514;-0.178;2023-03-31T05:28:37;98125.59;;;12.98;97.08
43420;BME280;29017;51.514;-0.178;2023-03-31T05:31:04;98114.03;;;12.99;97.13
43420;BME280;29017;51.514;-0.178;2023-03-31T05:33:32;98114.03;;;12.99;97.18
43420;BME280;29017;51.514;-0.178;2023-03-31T05:35:59;98121.69;;;13.01;97.05
43420;BME280;29017;51.514;-0.178;2023-03-31T05:38:27;98105.84;;;13.01;96.86
43420;BME280;29017;51.514;-0.178;2023-03-31T05:40:57;98100.03;;;12.99;96.22
43420;BME280;29017;51.514;-0.178;2023-03-31T05:43:24;98095.78;;;12.98;96.30
43420;BME280;29017;51.514;-0.178;2023-03-31T05:45:51;98090.25;;;12.99;96.49
43420;BME280;29017;51.514;-0.178;2023-03-31T05:48:18;98087.38;;;13.01;96.73
43420;BME280;29017;51.514;-0.178;2023-03-31T05:50:45;98092.66;;;13.01;96.70
43420;BME280;29017;51.514;-0.178;2023-03-31T05:53:12;98076.81;;;13.01;96.43
43420;BME280;29017;51.514;-0.178;2023-03-31T05:55:39;98073.41;;;13.00;96.30
43420;BME280;29017;51.514;-0.178;2023-03-31T05:58:06;98073.41;;;13.00;96.82
43420;BME280;29017;51.514;-0.178;2023-03-31T06:00:34;98059.94;;;13.02;97.47
43420;BME280;29017;51.514;-0.178;2023-03-31T06:03:02;98058.09;;;13.02;97.71
43420;BME280;29017;51.514;-0.178;2023-03-31T06:05:29;98055.22;;;13.04;97.83
43420;BME280;29017;51.514;-0.178;2023-03-31T06:07:57;98056.28;;;13.03;97.66
43420;BME280;29017;51.514;-0.178;2023-03-31T06:10:24;98055.00;;;13.05;97.81
43420;BME280;29017;51.514;-0.178;2023-03-31T06:12:51;98051.00;;;13.03;97.72
43420;BME280;29017;51.514;-0.178;2023-03-31T06:15:18;98049.63;;;13.00;97.27
43420;BME280;29017;51.514;-0.178;2023-03-31T06:17:45;98057.56;;;13.00;97.61
43420;BME280;29017;51.514;-0.178;2023-03-31T06:20:12;98051.94;;;12.97;97.86
43420;BME280;29017;51.514;-0.178;2023-03-31T06:22:53;98054.66;;;13.02;98.30
43420;BME280;29017;51.514;-0.178;2023-03-31T06:25:20;98058.69;;;13.04;98.33
43420;BME280;29017;51.514;-0.178;2023-03-31T06:27:47;98059.94;;;13.02;97.73
43420;BME280;29017;51.514;-0.178;2023-03-31T06:30:14;98046.75;;;13.02;97.71
43420;BME280;29017;51.514;-0.178;2023-03-31T06:32:41;98049.63;;;13.00;97.75
43420;BME280;29017;51.514;-0.178;2023-03-31T06:35:08;98051.00;;;13.03;98.07
43420;BME280;29017;51.514;-0.178;2023-03-31T06:37:35;98043.66;;;13.05;98.41
43420;BME280;29017;51.514;-0.178;2023-03-31T06:40:02;98055.00;;;13.05;97.57
43420;BME280;29017;51.514;-0.178;2023-03-31T06:42:30;98050.28;;;13.07;96.82
43420;BME280;29017;51.514;-0.178;2023-03-31T06:44:57;98053.72;;;13.08;96.80
43420;BME280;29017;51.514;-0.178;2023-03-31T06:47:24;98044.53;;;13.10;96.92
43420;BME280;29017;51.514;-0.178;2023-03-31T06:49:51;98043.03;;;13.14;97.34
43420;BME280;29017;51.514;-0.178;2023-03-31T06:52:18;98043.59;;;13.16;97.25
43420;BME280;29017;51.514;-0.178;2023-03-31T06:54:45;98038.09;;;13.18;97.33
43420;BME280;29017;51.514;-0.178;2023-03-31T06:57:12;98042.88;;;13.21;97.42
43420;BME280;29017;51.514;-0.178;2023-03-31T06:59:39;98042.63;;;13.22;96.65
43420;BME280;29017;51.514;-0.178;2023-03-31T07:02:06;98030.25;;;13.23;96.28
43420;BME280;29017;51.514;-0.178;2023-03-31T07:04:33;98033.91;;;13.22;96.41
43420;BME280;29017;51.514;-0.178;2023-03-31T07:07:00;98038.47;;;13.26;96.62
43420;BME280;29017;51.514;-0.178;2023-03-31T07:09:27;98030.56;;;13.26;95.15
43420;BME280;29017;51.514;-0.178;2023-03-31T07:11:54;98031.34;;;13.27;95.31
43420;BME280;29017;51.514;-0.178;2023-03-31T07:14:22;98026.97;;;13.33;95.59
43420;BME280;29017;51.514;-0.178;2023-03-31T07:16:49;98024.31;;;13.33;95.38
43420;BME280;29017;51.514;-0.178;2023-03-31T07:19:16;98025.22;;;13.38;95.55
43420;BME280;29017;51.514;-0.178;2023-03-31T07:21:43;98028.41;;;13.40;95.67
43420;BME280;29017;51.514;-0.178;2023-03-31T07:24:11;98029.31;;;13.46;95.74
43420;BME280;29017;51.514;-0.178;2023-03-31T07:26:38;98031.75;;;13.52;96.26
43420;BME280;29017;51.514;-0.178;2023-03-31T07:29:05;98021.53;;;13.56;94.71
43420;BME280;29017;51.514;-0.178;2023-03-31T07:31:32;98024.72;;;13.58;93.67
43420;BME280;29017;51.514;-0.178;2023-03-31T07:34:00;98030.88;;;13.63;94.22
43420;BME280;29017;51.514;-0.178;2023-03-31T07:36:27;98028.06;;;13.70;94.04
43420;BME280;29017;51.514;-0.178;2023-03-31T07:38:54;98025.66;;;13.68;94.07
43420;BME280;29017;51.514;-0.178;2023-03-31T07:41:21;98025.91;;;13.67;93.74
43420;BME280;29017;51.514;-0.178;2023-03-31T07:43:48;98014.78;;;13.65;93.38
43420;BME280;29017;51.514;-0.178;2023-03-31T07:46:18;98017.44;;;13.65;93.13
43420;BME280;29017;51.514;-0.178;2023-03-31T07:48:46;98019.03;;;13.66;93.00
43420;BME280;29017;51.514;-0.178;2023-03-31T07:51:14;98021.69;;;13.66;93.48
43420;BME280;29017;51.514;-0.178;2023-03-31T07:53:42;98013.56;;;13.73;93.92
43420;BME280;29017;51.514;-0.178;2023-03-31T07:56:10;98011.97;;;13.71;92.59
43420;BME280;29017;51.514;-0.178;2023-03-31T07:58:37;98017.81;;;13.74;92.36
43420;BME280;29017;51.514;-0.178;2023-03-31T08:01:04;98025.25;;;13.77;92.97
43420;BME280;29017;51.514;-0.178;2023-03-31T08:03:32;98014.94;;;13.75;92.78
43420;BME280;29017;51.514;-0.178;2023-03-31T08:06:00;98021.81;;;13.76;93.09
43420;BME280;29017;51.514;-0.178;2023-03-31T08:08:27;98013.09;;;13.76;93.10
43420;BME280;29017;51.514;-0.178;2023-03-31T08:10:54;98017.09;;;13.78;93.54
43420;BME280;29017;51.514;-0.178;2023-03-31T08:13:21;98013.16;;;13.81;93.39
43420;BME280;29017;51.514;-0.178;2023-03-31T08:15:48;98013.72;;;13.83;93.43
43420;BME280;29017;51.514;-0.178;2023-03-31T08:18:15;98004.66;;;13.79;92.95
43420;BME280;29017;51.514;-0.178;2023-03-31T08:20:42;98016.03;;;13.79;93.39
43420;BME280;29017;51.514;-0.178;2023-03-31T08:23:09;98008.13;;;13.79;93.62
43420;BME280;29017;51.514;-0.178;2023-03-31T08:25:37;98010.19;;;13.77;93.81
43420;BME280;29017;51.514;-0.178;2023-03-31T08:28:04;97991.69;;;13.77;94.54
43420;BME280;29017;51.514;-0.178;2023-03-31T08:30:32;97994.59;;;13.76;93.36
43420;BME280;29017;51.514;-0.178;2023-03-31T08:33:00;97996.66;;;13.74;93.42
43420;BME280;29017;51.514;-0.178;2023-03-31T08:35:27;97996.19;;;13.77;94.17
43420;BME280;29017;51.514;-0.178;2023-03-31T08:37:54;97996.50;;;13.80;94.05
43420;BME280;29017;51.514;-0.178;2023-03-31T08:40:22;98000.13;;;13.74;93.22
43420;BME280;29017;51.514;-0.178;2023-03-31T08:42:52;98000.69;;;13.76;94.12
43420;BME280;29017;51.514;-0.178;2023-03-31T08:45:23;97992.75;;;13.76;94.31
43420;BME280;29017;51.514;-0.178;2023-03-31T08:47:53;97992.75;;;13.76;93.55
43420;BME280;29017;51.514;-0.178;2023-03-31T08:50:24;97993.38;;;13.83;94.35
43420;BME280;29017;51.514;-0.178;2023-03-31T08:52:56;97990.19;;;13.81;94.06
43420;BME280;29017;51.514;-0.178;2023-03-31T08:55:26;97986.66;;;13.76;93.38
43420;BME280;29017;51.514;-0.178;2023-03-31T08:57:58;97985.38;;;13.78;93.93
43420;BME280;29017;51.514;-0.178;2023-03-31T09:00:28;97988.09;;;13.83;94.23
43420;BME280;29017;51.514;-0.178;2023-03-31T09:02:59;97982.31;;;13.86;94.23
43420;BME280;29017;51.514;-0.178;2023-03-31T09:05:34;97988.72;;;13.90;94.49
43420;BME280;29017;51.514;-0.178;2023-03-31T09:08:32;97979.53;;;13.98;94.52
43420;BME280;29017;51.514;-0.178;2023-03-31T09:11:05;97979.53;;;13.98;93.51
43420;BME280;29017;51.514;-0.178;2023-03-31T09:13:38;97977.47;;;14.00;93.18
43420;BME280;29017;51.514;-0.178;2023-03-31T09:16:14;97975.38;;;14.02;93.29
43420;BME280;29017;51.514;-0.178;2023-03-31T09:18:42;97975.38;;;14.02;92.96
43420;BME280;29017;51.514;-0.178;2023-03-31T09:21:17;97971.38;;;13.99;93.40
43420;BME280;29017;51.514;-0.178;2023-03-31T09:23:50;97972.66;;;13.97;92.70
43420;BME280;29017;51.514;-0.178;2023-03-31T09:26:26;97961.59;;;14.00;92.93
43420;BME280;29017;51.514;-0.178;2023-03-31T09:29:03;97963.50;;;14.04;92.78
43420;BME280;29017;51.514;-0.178;2023-03-31T09:31:39;97962.78;;;14.09;92.36
43420;BME280;29017;51.514;-0.178;2023-03-31T09:34:15;97964.06;;;14.06;91.44
43420;BME280;29017;51.514;-0.178;2023-03-31T09:36:43;97956.38;;;14.05;92.00
43420;BME280;29017;51.514;-0.178;2023-03-31T09:39:11;97950.22;;;13.99;92.90
43420;BME280;29017;51.514;-0.178;2023-03-31T09:41:41;97940.16;;;13.96;92.69
43420;BME280;29017;51.514;-0.178;2023-03-31T09:44:15;97945.19;;;13.98;92.74
43420;BME280;29017;51.514;-0.178;2023-03-31T09:46:47;97947.81;;;13.98;93.41
43420;BME280;29017;51.514;-0.178;2023-03-31T09:49:17;97947.59;;;13.99;93.40
43420;BME280;29017;51.514;-0.178;2023-03-31T09:51:45;97951.50;;;13.97;93.11
43420;BME280;29017;51.514;-0.178;2023-03-31T09:54:18;97940.63;;;13.93;92.91
43420;BME280;29017;51.514;-0.178;2023-03-31T09:56:48;97936.44;;;13.97;93.53
43420;BME280;29017;51.514;-0.178;2023-03-31T09:59:20;97943.84;;;13.95;93.29
43420;BME280;29017;51.514;-0.178;2023-03-31T10:01:49;97948.09;;;13.96;93.84
43420;BME280;29017;51.514;-0.178;2023-03-31T10:04:20;97945.13;;;13.93;93.48
43420;BME280;29017;51.514;-0.178;2023-03-31T10:06:48;97955.97;;;13.91;93.65
43420;BME280;29017;51.514;-0.178;2023-03-31T10:09:18;97949.88;;;13.91;93.90
43420;BME280;29017;51.514;-0.178;2023-03-31T10:11:55;97946.66;;;13.89;93.53
43420;BME280;29017;51.514;-0.178;2023-03-31T10:14:24;97952.75;;;13.89;94.40
43420;BME280;29017;51.514;-0.178;2023-03-31T10:16:54;97942.91;;;13.85;94.48
43420;BME280;29017;51.514;-0.178;2023-03-31T10:24:35;97944.38;;;13.76;95.89
43420;BME280;29017;51.514;-0.178;2023-03-31T10:27:04;97945.19;;;13.76;96.72
43420;BME280;29017;51.514;-0.178;2023-03-31T10:29:32;97951.25;;;13.77;96.88
43420;BME280;29017;51.514;-0.178;2023-03-31T10:32:02;97960.25;;;13.76;96.60
43420;BME280;29017;51.514;-0.178;2023-03-31T10:34:30;97949.97;;;13.79;97.52
43420;BME280;29017;51.514;-0.178;2023-03-31T10:36:58;97950.53;;;13.81;97.42
43420;BME280;29017;51.514;-0.178;2023-03-31T10:39:28;97951.06;;;13.83;97.57
43420;BME280;29017;51.514;-0.178;2023-03-31T10:41:56;97964.06;;;13.85;96.93
43420;BME280;29017;51.514;-0.178;2023-03-31T10:47:05;97971.19;;;13.84;96.50
43420;BME280;29017;51.514;-0.178;2023-03-31T10:49:36;97981.03;;;13.89;97.14
43420;BME280;29017;51.514;-0.178;2023-03-31T10:52:12;97970.44;;;13.89;96.45
43420;BME280;29017;51.514;-0.178;2023-03-31T10:57:18;97973.38;;;13.92;95.53
43420;BME280;29017;51.514;-0.178;2023-03-31T11:04:55;97984.84;;;13.98;95.03
43420;BME280;29017;51.514;-0.178;2023-03-31T11:10:02;98001.28;;;14.22;96.40
43420;BME280;29017;51.514;-0.178;2023-03-31T11:12:37;98007.09;;;14.24;94.85
43420;BME280;29017;51.514;-0.178;2023-03-31T11:15:13;98006.38;;;14.28;94.39
43420;BME280;29017;51.514;-0.178;2023-03-31T11:20:27;98019.25;;;14.41;93.76
43420;BME280;29017;51.514;-0.178;2023-03-31T11:23:03;98018.00;;;14.49;93.83
43420;BME280;29017;51.514;-0.178;2023-03-31T11:35:54;98032.94;;;14.82;92.00
43420;BME280;29017;51.514;-0.178;2023-03-31T11:45:58;98057.88;;;14.86;93.07
43420;BME280;29017;51.514;-0.178;2023-03-31T11:51:04;98073.88;;;14.74;92.55
43420;BME280;29017;51.514;-0.178;2023-03-31T11:53:34;98071.16;;;14.69;93.18
43420;BME280;29017;51.514;-0.178;2023-03-31T11:56:03;98083.31;;;14.65;93.60
43420;BME280;29017;51.514;-0.178;2023-03-31T11:58:35;98081.22;;;14.67;94.11
43420;BME280;29017;51.514;-0.178;2023-03-31T12:03:41;98092.03;;;14.66;93.66
43420;BME280;29017;51.514;-0.178;2023-03-31T12:06:12;98108.22;;;14.69;93.35
43420;BME280;29017;51.514;-0.178;2023-03-31T12:11:14;98114.44;;;14.80;94.17
43420;BME280;29017;51.514;-0.178;2023-03-31T12:19:01;98127.84;;;15.17;92.87
43420;BME280;29017;51.514;-0.178;2023-03-31T12:21:31;98133.47;;;15.25;92.08
43420;BME280;29017;51.514;-0.178;2023-03-31T12:24:00;98137.72;;;15.26;91.28
43420;BME280;29017;51.514;-0.178;2023-03-31T12:28:56;98150.94;;;15.21;90.63
43420;BME280;29017;51.514;-0.178;2023-03-31T12:31:24;98152.78;;;15.21;91.19
43420;BME280;29017;51.514;-0.178;2023-03-31T12:33:54;98149.63;;;15.24;91.56
43420;BME280;29017;51.514;-0.178;2023-03-31T12:46:26;98166.47;;;15.93;89.31
43420;BME280;29017;51.514;-0.178;2023-03-31T12:56:25;98174.91;;;16.22;86.69
43420;BME280;29017;51.514;-0.178;2023-03-31T12:58:53;98175.44;;;16.19;84.75
43420;BME280;29017;51.514;-0.178;2023-03-31T13:01:20;98177.06;;;16.25;85.48
43420;BME280;29017;51.514;-0.178;2023-03-31T13:08:57;98186.72;;;16.41;85.09
43420;BME280;29017;51.514;-0.178;2023-03-31T13:13:57;98181.19;;;16.48;83.93
43420;BME280;29017;51.514;-0.178;2023-03-31T13:16:26;98188.09;;;16.49;84.04
43420;BME280;29017;51.514;-0.178;2023-03-31T13:18:54;98193.88;;;16.41;83.67
43420;BME280;29017;51.514;-0.178;2023-03-31T13:21:22;98205.16;;;16.21;84.48
43420;BME280;29017;51.514;-0.178;2023-03-31T13:23:50;98230.22;;;16.03;86.83
43420;BME280;29017;51.514;-0.178;2023-03-31T13:32:04;98234.22;;;15.52;91.74
43420;BME280;29017;51.514;-0.178;2023-03-31T13:34:20;98243.47;;;15.28;90.91
43420;BME280;29017;51.514;-0.178;2023-03-31T13:36:48;98237.47;;;15.16;92.10
43420;BME280;29017;51.514;-0.178;2023-03-31T13:49:46;98274.97;;;14.86;95.61
43420;BME280;29017;51.514;-0.178;2023-03-31T13:55:17;98273.53;;;14.78;94.89
43420;BME280;29017;51.514;-0.178;2023-03-31T14:05:28;98304.91;;;14.53;94.29
43420;BME280;29017;51.514;-0.178;2023-03-31T14:07:59;98312.28;;;14.51;94.61
43420;BME280;29017;51.514;-0.178;2023-03-31T14:15:32;98332.09;;;14.48;93.89
43420;BME280;29017;51.514;-0.178;2023-03-31T14:18:02;98329.22;;;14.50;93.93
43420;BME280;29017;51.514;-0.178;2023-03-31T14:25:42;98344.94;;;14.57;94.12
43420;BME280;29017;51.514;-0.178;2023-03-31T14:38:27;98353.41;;;14.59;94.76
43420;BME280;29017;51.514;-0.178;2023-03-31T14:40:55;98361.63;;;14.57;93.97
43420;BME280;29017;51.514;-0.178;2023-03-31T14:43:24;98374.38;;;14.60;94.46
43420;BME280;29017;51.514;-0.178;2023-03-31T14:45:56;98375.50;;;14.64;94.41
43420;BME280;29017;51.514;-0.178;2023-03-31T14:48:25;98378.94;;;14.65;94.28
43420;BME280;29017;51.514;-0.178;2023-03-31T14:50:56;98374.94;;;14.62;94.64
43420;BME280;29017;51.514;-0.178;2023-03-31T14:53:24;98388.19;;;14.62;94.87
43420;BME280;29017;51.514;-0.178;2023-03-31T14:55:55;98390.81;;;14.62;95.31
43420;BME280;29017;51.514;-0.178;2023-03-31T14:58:26;98392.41;;;14.63;95.74
43420;BME280;29017;51.514;-0.178;2023-03-31T15:00:56;98400.59;;;14.62;95.71
43420;BME280;29017;51.514;-0.178;2023-03-31T15:03:23;98399.78;;;14.61;95.63
43420;BME280;29017;51.514;-0.178;2023-03-31T15:05:55;98391.84;;;14.61;95.42
43420;BME280;29017;51.514;-0.178;2023-03-31T15:08:23;98405.56;;;14.58;95.46
43420;BME280;29017;51.514;-0.178;2023-03-31T15:10:52;98398.91;;;14.55;95.95
43420;BME280;29017;51.514;-0.178;2023-03-31T15:13:38;98405.22;;;14.54;95.51
43420;BME280;29017;51.514;-0.178;2023-03-31T15:16:27;98410.44;;;14.49;94.60
43420;BME280;29017;51.514;-0.178;2023-03-31T15:18:58;98416.03;;;14.53;95.60
43420;BME280;29017;51.514;-0.178;2023-03-31T15:21:27;98416.94;;;14.59;95.96
43420;BME280;29017;51.514;-0.178;2023-03-31T15:23:55;98416.00;;;14.65;95.65
43420;BME280;29017;51.514;-0.178;2023-03-31T15:26:31;98421.88;;;14.67;95.14
43420;BME280;29017;51.514;-0.178;2023-03-31T15:29:08;98426.13;;;14.68;94.63
43420;BME280;29017;51.514;-0.178;2023-03-31T15:31:37;98431.72;;;14.71;94.41
43420;BME280;29017;51.514;-0.178;2023-03-31T15:34:11;98438.97;;;14.76;94.36
43420;BME280;29017;51.514;-0.178;2023-03-31T15:36:40;98445.88;;;14.77;93.81
43420;BME280;29017;51.514;-0.178;2023-03-31T15:39:09;98451.38;;;14.75;93.22
43420;BME280;29017;51.514;-0.178;2023-03-31T15:41:37;98451.97;;;14.77;93.21
43420;BME280;29017;51.514;-0.178;2023-03-31T15:44:05;98457.47;;;14.76;93.14
43420;BME280;29017;51.514;-0.178;2023-03-31T15:49:24;98475.78;;;14.77;92.38
43420;BME280;29017;51.514;-0.178;2023-03-31T15:51:53;98476.59;;;14.78;91.86